This is the latest recevied weather packets stored in our database for station/object IZ3ZOD-13. If no packets are shown the sender has not sent any weather packets the latest 10 day(s).
| Time | Temp. | Humidity | Pressure | Rain* | Wind** | Luminosity | Snow |
|---|---|---|---|---|---|---|---|
| 1777147683 | 16.11° C | 68% | 1014.4 hPa | 0 mm | - | - | - |
| 1777147444 | 16.11° C | 68% | 1014.6 hPa | 0 mm | - | - | - |
| 1777147204 | 16.11° C | 67% | 1014.5 hPa | 0 mm | - | - | - |
| 1777146963 | 16.67° C | 65% | 1014.6 hPa | 0 mm | - | - | - |
| 1777146724 | 16.67° C | 65% | 1014.5 hPa | 0 mm | - | - | - |
| 1777140003 | 20.56° C | 61% | 1013.6 hPa | 0 mm | - | - | - |
| 1777139415 | 21.11° C | 61% | 1013.6 hPa | 0 mm | - | - | - |
| 1777138804 | 21.67° C | 59% | 1013.2 hPa | 0 mm | - | - | - |
| 1777137364 | 22.22° C | 57% | 1013 hPa | 0 mm | - | - | - |
| 1777135203 | 23.33° C | 57% | 1013.1 hPa | 0 mm | - | - | - |
| 1777134963 | 23.33° C | 57% | 1013.3 hPa | 0 mm | - | - | - |
| 1777134617 | 23.33° C | 57% | 1013.3 hPa | 0 mm | - | - | - |
| 1777133764 | 22.78° C | 58% | 1013.3 hPa | 0 mm | - | - | - |
| 1777133284 | 23.33° C | 58% | 1013.4 hPa | 0 mm | - | - | - |
| 1777128003 | 23.33° C | 54% | 1013.7 hPa | 0 mm | - | - | - |
| 1777125603 | 24.44° C | 54% | 1013.9 hPa | 0 mm | - | - | - |
| 1777124884 | 23.89° C | 54% | 1014.1 hPa | 0 mm | - | - | - |
| 1777123204 | 23.89° C | 54% | 1014.4 hPa | 0 mm | - | - | - |
| 1777117923 | 23.33° C | 55% | 1015.1 hPa | 0 mm | - | - | - |
| 1777117203 | 23.33° C | 53% | 1015.2 hPa | 0 mm | - | - | - |
| 1777116723 | 23.89° C | 51% | 1015.3 hPa | 0 mm | - | - | - |
| 1777116483 | 23.33° C | 55% | 1015.5 hPa | 0 mm | - | - | - |
| 1777116244 | 23.33° C | 52% | 1015.5 hPa | 0 mm | - | - | - |
| 1777114804 | 23.89° C | 46% | 1015.8 hPa | 0 mm | - | - | - |
| 1777111923 | 22.22° C | 47% | 1016.2 hPa | 0 mm | - | - | - |
* Rain latest hour (hover to see other rain measurements)
** Current wind speed in m/s (hover to see current wind gust speed)